Latest Weather Observations for Tamworth Airport

IDN60801

Issued at 10:03 pm EST Tuesday 27 September 2016 (issued every 30 minutes, with the page automatically refreshed every 10 minutes)

About weather observations | Map of weather stations | Latest weather observations for NSW | Other Formats
Station Details ID: 055325 Name: TAMWORTH AIRPORT AWS Lat: -31.07 Lon: 150.84 Height: 394.9 m
Data from the previous 72 hours. | See also: Recent months at Tamworth Airport
Date/Time
EST
Temp
°C
App
Temp
°C
Dew
Point
°C
Rel
Hum
%
Delta-T
°C
Wind Press
QNH
hPa
Press
MSL
hPa
Rain since
9am
mm
Dir  Spd
km/h
Gust
km/h
Spd
kts
Gust
kts
27/10:00pm 10.6 7.0 3.2 60 3.3 W 11 17 6 9 1014.6 1014.2 0.0
27/09:30pm 12.3 6.4 3.8 56 3.9 WSW 24 28 13 15 1014.2 1013.8 0.0
27/09:00pm 11.0 7.2 4.0 62 3.2 WSW 13 17 7 9 1014.4 1014.0 0.0
27/08:30pm 11.4 7.7 4.2 61 3.3 SW 13 15 7 8 1014.5 1014.1 0.0
27/08:00pm 11.9 8.2 4.4 60 3.5 WSW 13 19 7 10 1014.1 1013.7 0.0
27/07:30pm 14.1 9.5 5.5 56 4.1 WSW 19 24 10 13 1013.9 1013.4 0.0
27/07:00pm 14.5 8.9 5.3 54 4.4 W 24 30 13 16 1013.2 1012.7 0.0
27/06:30pm 15.8 10.7 6.0 52 4.8 W 22 33 12 18 1013.0 1012.5 0.0
27/06:00pm 16.4 11.0 6.5 52 5.0 WSW 24 32 13 17 1012.6 1012.2 0.0
27/05:30pm 17.7 13.3 7.2 50 5.4 WSW 20 28 11 15 1012.2 1011.8 0.0
27/05:00pm 19.4 15.1 7.2 45 6.3 WNW 19 24 10 13 1011.8 1011.3 0.0
27/04:30pm 19.0 14.1 6.8 45 6.2 WNW 22 32 12 17 1011.5 1011.0 0.0
27/04:00pm 19.0 13.8 7.4 47 6.0 WNW 24 33 13 18 1011.1 1010.6 0.0
27/03:30pm 19.1 13.1 7.2 46 6.1 NW 28 39 15 21 1011.2 1010.7 0.0
27/03:00pm 19.0 12.7 7.4 47 6.0 NW 30 44 16 24 1011.2 1010.7 0.0
27/02:30pm 19.0 12.2 6.8 45 6.2 WNW 32 46 17 25 1011.4 1010.9 0.0
27/02:00pm 19.5 12.6 6.3 42 6.7 WNW 32 43 17 23 1011.6 1011.1 0.0
27/01:30pm 18.9 11.5 6.7 45 6.2 NW 35 50 19 27 1011.8 1011.3 0.0
27/01:00pm 18.7 12.4 7.2 47 5.9 NW 30 41 16 22 1012.1 1011.7 0.0
27/12:30pm 19.8 13.9 7.5 45 6.4 NW 28 39 15 21 1012.4 1012.0 0.0
27/12:00pm 19.0 13.4 7.1 46 6.1 NW 26 35 14 19 1013.1 1012.6 0.0
27/11:30am 18.5 13.1 7.9 50 5.5 WNW 26 37 14 20 1013.9 1013.4 0.0
27/11:00am 17.7 13.6 8.6 55 4.8 NW 20 28 11 15 1014.4 1014.0 0.0
27/10:30am 16.3 12.2 6.2 51 5.0 NW 17 24 9 13 1015.0 1014.6 0.0
27/10:00am 15.5 11.1 6.5 55 4.5 NNW 19 24 10 13 1015.7 1015.2 0.0
27/09:30am 14.6 10.4 5.9 56 4.2 NW 17 26 9 14 1016.2 1015.7 0.0
27/09:00am 13.3 10.4 6.4 63 3.4 NNW 11 17 6 9 1016.5 1016.1 0.0
27/08:30am 11.7 8.7 6.2 69 2.6 NNW 11 17 6 9 1016.7 1016.3 0.0
27/08:00am 10.4 8.5 5.0 69 2.5 NW 4 11 2 6 1016.6 1016.2 0.0
27/07:30am 9.0 7.8 4.8 75 1.9 CALM 0 0 0 0 1016.4 1016.0 0.0
27/07:00am 7.8 5.5 4.7 81 1.4 ESE 6 9 3 5 1016.3 1015.9 0.0
27/06:30am 6.3 3.4 4.5 88 0.8 SE 9 11 5 6 1016.0 1015.5 0.0
27/06:00am 4.4 0.8 2.8 89 0.7 SE 11 13 6 7 1015.8 1015.3 0.0
27/05:30am 3.3 -0.9 1.7 89 0.6 SE 13 15 7 8 1015.7 1015.2 0.0
27/05:00am 3.2 -0.3 1.4 88 0.7 SE 9 13 5 7 1015.5 1015.0 0.0
27/04:30am 4.1 1.2 2.5 89 0.7 WSW 7 9 4 5 1015.2 1014.8 0.0
27/04:00am 3.1 -0.1 0.7 84 0.9 WNW 7 9 4 5 1014.8 1014.4 0.0
27/03:30am 5.6 4.2 3.3 85 1.0 CALM 0 0 0 0 1014.6 1014.2 0.0
27/03:00am 5.9 3.3 3.4 84 1.1 NNW 6 7 3 4 1014.8 1014.4 0.0
27/02:30am 5.8 3.3 3.5 85 1.0 N 6 7 3 4 1015.0 1014.6 0.0
27/02:00am 6.4 3.7 3.7 83 1.2 NNE 7 9 4 5 1015.0 1014.6 0.0
27/01:30am 6.5 4.0 3.7 82 1.2 N 6 9 3 5 1015.5 1015.0 0.0
27/01:00am 6.4 4.6 3.4 81 1.3 NNW 2 7 1 4 1015.8 1015.3 0.0
27/12:30am 6.9 4.4 3.5 79 1.5 NW 6 7 3 4 1015.7 1015.2 0.0
27/12:00am 7.7 4.6 3.6 75 1.8 WNW 9 9 5 5 1015.8 1015.3 0.0
 
Date/Time
EST
Temp
°C
App
Temp
°C
Dew
Point
°C
Rel
Hum
%
Delta-T
°C
Wind Press
QNH
hPa
Press
MSL
hPa
Rain since
9am
mm
Dir  Spd
km/h
Gust
km/h
Spd
kts
Gust
kts
26/11:30pm 8.1 5.3 3.4 72 2.1 WNW 7 11 4 6 1015.9 1015.4 0.0
26/11:00pm 9.1 6.0 3.7 69 2.4 WNW 9 13 5 7 1015.7 1015.2 0.0
26/10:30pm 8.8 5.8 4.2 73 2.1 N 9 11 5 6 1015.7 1015.2 0.0
26/10:00pm 10.2 7.9 4.8 69 2.5 SW 6 9 3 5 1015.8 1015.3 0.0
26/09:30pm 10.0 7.0 4.2 67 2.6 W 9 13 5 7 1015.5 1015.0 0.0
26/09:00pm 11.4 7.3 4.4 62 3.2 W 15 22 8 12 1015.3 1014.9 0.0
26/08:30pm 12.0 7.2 5.4 64 3.1 W 20 24 11 13 1015.2 1014.8 0.0
26/08:00pm 12.1 7.3 5.5 64 3.1 W 20 24 11 13 1014.9 1014.5 0.0
26/07:30pm 12.6 8.5 6.2 65 3.1 WNW 17 24 9 13 1014.5 1014.1 0.0
26/07:00pm 11.6 7.9 6.3 70 2.6 NW 15 19 8 10 1013.6 1013.1 0.0
26/06:30pm 12.6 8.9 6.4 66 3.0 NW 15 17 8 9 1013.2 1012.7 0.0
26/06:00pm 13.6 11.3 7.4 66 3.1 NW 9 11 5 6 1012.8 1012.3 0.0
26/05:30pm 16.0 13.0 7.5 57 4.3 NW 13 17 7 9 1012.0 1011.6 0.0
26/05:00pm 16.9 14.1 7.0 52 5.0 N 11 15 6 8 1011.7 1011.2 0.0
26/04:30pm 17.5 13.8 6.1 47 5.7 NNW 15 20 8 11 1011.4 1010.9 0.0
26/04:00pm 16.8 13.4 5.7 48 5.5 NW 13 17 7 9 1011.7 1011.2 0.0
26/03:30pm 17.9 13.7 5.5 44 6.1 NW 17 24 9 13 1011.8 1011.3 0.0
26/03:00pm 18.1 13.6 2.4 35 7.3 W 15 26 8 14 1012.0 1011.6 0.0
26/02:30pm 17.8 13.1 5.1 43 6.2 NW 19 26 10 14 1012.3 1011.9 0.0
26/02:00pm 18.2 13.8 7.3 49 5.6 WNW 20 30 11 16 1012.8 1012.3 0.0
26/01:30pm 17.9 13.6 7.9 52 5.2 NW 20 30 11 16 1013.0 1012.5 0.0
26/01:00pm 17.9 13.6 7.0 49 5.6 NW 19 26 10 14 1013.3 1012.8 0.0
26/12:30pm 17.2 12.8 7.3 52 5.1 NW 20 30 11 16 1013.7 1013.2 0.0
26/12:00pm 17.0 13.4 8.2 56 4.6 NW 17 24 9 13 1013.9 1013.4 0.0
26/11:30am 16.8 13.5 8.0 56 4.5 NNW 15 24 8 13 1014.3 1013.9 0.0
26/11:00am 16.5 12.8 8.0 57 4.4 NW 17 30 9 16 1014.7 1014.3 0.0
26/10:30am 15.2 12.4 8.7 65 3.4 NNW 13 20 7 11 1015.1 1014.7 0.0
26/10:00am 14.8 12.4 8.7 67 3.2 N 11 17 6 9 1015.1 1014.7 0.0
26/09:30am 14.2 12.1 9.8 75 2.3 NNW 11 17 6 9 1015.2 1014.8 0.0
26/09:14am 13.2 11.3 8.9 75 2.2 NNW 9 13 5 7 1015.2 1014.8 0.0
26/09:00am 12.9 11.4 9.0 77 2.0 N 7 11 4 6 1015.1 1014.7 1.6
26/08:55am 12.8 11.4 8.7 76 2.1 N 6 9 3 5 1015.0 1014.6 1.6
26/08:30am 12.7 10.7 8.6 76 2.1 NW 9 11 5 6 1015.1 1014.7 1.6
26/08:00am 12.0 9.8 9.2 83 1.4 WNW 11 17 6 9 1015.1 1014.7 1.6
26/07:30am 10.9 8.2 8.8 87 1.1 WNW 13 17 7 9 1015.1 1014.7 1.6
26/07:00am 9.6 8.5 8.4 92 0.6 NW 4 6 2 3 1014.9 1014.5 1.6
26/06:30am 7.7 6.5 6.3 91 0.7 WNW 2 7 1 4 1014.8 1014.4 1.6
26/06:00am 7.1 4.8 5.7 91 0.6 NNW 7 9 4 5 1014.5 1014.1 1.6
26/05:32am 7.9 7.1 6.7 92 0.6 CALM 0 0 0 0 1014.2 1013.8 1.6
26/05:30am 7.8 7.0 6.6 92 0.6 CALM 0 0 0 0 1014.2 1013.8 1.6
26/05:00am 7.2 5.1 5.8 91 0.6 NNE 6 6 3 3 1013.9 1013.4 1.6
26/04:46am 7.0 4.9 5.6 91 0.6 N 6 7 3 4 1013.9 1013.4 1.6
26/04:42am 7.8 6.2 6.4 91 0.7 N 4 7 2 4 1014.0 1013.5 1.6
26/04:30am 7.7 6.9 6.3 91 0.7 CALM 0 6 0 3 1013.6 1013.1 1.6
26/04:00am 5.7 3.3 4.2 90 0.7 NE 6 7 3 4 1013.4 1012.9 1.6
26/03:58am 6.2 3.9 4.7 90 0.7 NE 6 7 3 4 1013.4 1012.9 1.6
26/03:56am 6.7 4.5 5.3 91 0.6 NE 6 7 3 4 1013.4 1012.9 1.6
26/03:30am 7.1 6.1 5.6 90 0.7 CALM 0 0 0 0 1013.5 1013.0 1.6
26/03:00am 7.2 4.5 5.7 90 0.7 N 9 9 5 5 1013.5 1013.0 1.6
26/02:49am 7.8 5.8 6.3 90 0.7 NNE 6 7 3 4 1013.4 1012.9 1.6
26/02:36am 7.8 5.6 6.3 90 0.7 NNE 7 9 4 5 1013.4 1012.9 1.6
26/02:30am 7.9 5.7 6.4 90 0.7 NE 7 11 4 6 1013.4 1012.9 1.6
26/02:26am 8.0 5.9 6.5 90 0.7 ENE 7 11 4 6 1013.4 1012.9 1.6
26/02:00am 8.4 7.6 6.7 89 0.8 CALM 0 0 0 0 1013.5 1013.0 1.6
26/01:30am 8.9 7.5 7.4 90 0.7 NNW 4 9 2 5 1013.6 1013.1 1.6
26/01:00am 9.0 7.0 7.1 88 0.9 NNW 7 11 4 6 1013.5 1013.0 1.6
26/12:30am 9.6 7.9 7.7 88 0.9 N 6 7 3 4 1013.4 1012.9 1.6
26/12:00am 9.8 8.0 7.9 88 0.9 NE 7 11 4 6 1013.3 1012.8 1.6
 
Date/Time
EST
Temp
°C
App
Temp
°C
Dew
Point
°C
Rel
Hum
%
Delta-T
°C
Wind Press
QNH
hPa
Press
MSL
hPa
Rain since
9am
mm
Dir  Spd
km/h
Gust
km/h
Spd
kts
Gust
kts
25/11:30pm 9.8 7.9 7.7 87 1.0 N 7 13 4 7 1013.4 1012.9 1.6
25/11:00pm 9.5 7.8 7.6 88 0.9 NE 6 9 3 5 1013.5 1013.0 1.6
25/10:30pm 10.0 8.4 7.8 86 1.1 W 6 9 3 5 1013.4 1012.9 1.6
25/10:00pm 10.2 7.9 7.4 83 1.4 NW 9 13 5 7 1013.5 1013.0 1.6
25/09:30pm 10.7 8.9 8.1 84 1.3 ENE 7 11 4 6 1012.8 1012.3 1.6
25/09:00pm 11.6 9.8 8.1 79 1.8 WNW 7 7 4 4 1012.4 1012.0 1.6
25/08:30pm 11.6 10.5 8.5 81 1.6 ENE 4 7 2 4 1012.3 1011.9 1.6
25/08:00pm 11.6 9.9 8.5 81 1.6 NNE 7 11 4 6 1012.0 1011.6 1.6
25/07:30pm 13.1 10.0 9.0 76 2.1 W 15 17 8 9 1011.7 1011.2 1.6
25/07:00pm 12.8 9.7 8.7 76 2.1 W 15 17 8 9 1011.4 1010.9 1.6
25/06:30pm 14.6 11.9 9.0 69 2.9 WNW 13 17 7 9 1010.9 1010.4 1.6
25/06:00pm 15.6 14.2 9.7 68 3.1 W 7 9 4 5 1010.6 1010.1 1.6
25/05:30pm 16.2 14.8 9.6 65 3.5 WNW 7 11 4 6 1010.2 1009.7 1.6
25/05:00pm 16.7 14.3 9.9 64 3.7 WSW 13 19 7 10 1009.8 1009.4 1.6
25/04:30pm 16.8 13.2 9.7 63 3.8 WSW 19 22 10 12 1009.3 1008.8 1.6
25/04:00pm 17.5 15.3 10.9 65 3.6 WNW 13 20 7 11 1009.0 1008.5 1.6
25/03:30pm 17.0 14.6 11.3 69 3.1 NW 15 20 8 11 1008.7 1008.2 1.6
25/03:00pm 16.8 13.9 10.9 68 3.2 WNW 17 24 9 13 1008.6 1008.1 1.6
25/02:30pm 16.6 13.2 11.1 70 3.0 NW 20 28 11 15 1008.4 1007.9 1.6
25/02:00pm 16.8 13.1 10.0 64 3.7 WNW 20 28 11 15 1008.3 1007.8 1.6
25/01:30pm 16.5 13.7 9.9 65 3.5 NW 15 20 8 11 1008.3 1007.8 1.6
25/01:00pm 15.7 13.0 10.2 70 3.0 NW 15 20 8 11 1008.5 1008.0 1.6
25/12:30pm 15.1 13.0 9.9 71 2.8 WNW 11 19 6 10 1008.7 1008.2 1.6
25/12:00pm 15.6 13.9 9.9 69 3.0 NW 9 17 5 9 1008.7 1008.2 1.6
25/11:30am 14.5 13.4 9.9 74 2.4 NNW 6 13 3 7 1009.1 1008.6 1.6
25/11:00am 13.9 12.7 10.3 79 1.9 NNW 7 13 4 7 1009.3 1008.8 1.6
25/10:30am 13.3 11.3 10.3 82 1.6 NNW 11 13 6 7 1010.1 1009.6 1.6
25/10:00am 12.9 11.6 10.1 83 1.5 NW 7 13 4 7 1010.3 1009.8 1.4
25/09:49am 12.7 11.3 9.7 82 1.6 W 7 9 4 5 1010.3 1009.8 1.2
25/09:30am 12.8 10.6 9.4 80 1.8 W 11 15 6 8 1010.4 1009.9 0.8
25/09:15am 12.9 10.5 9.9 82 1.6 SW 13 15 7 8 1010.1 1009.6 0.6
25/09:01am 13.1 10.8 10.3 83 1.5 WSW 13 17 7 9 1010.1 1009.6 0.0
25/09:00am 13.1 10.8 10.3 83 1.5 WSW 13 17 7 9 1010.1 1009.6 2.4
25/08:30am 13.9 12.9 10.3 79 1.9 WSW 6 11 3 6 1009.6 1009.1 1.6
25/08:00am 13.2 13.5 10.9 86 1.2 CALM 0 0 0 0 1009.3 1008.8 1.6
25/07:30am 12.9 13.2 11.0 88 1.0 CALM 0 0 0 0 1009.3 1008.8 1.6
25/07:00am 12.4 12.5 10.3 87 1.1 CALM 0 0 0 0 1009.2 1008.7 1.2
25/06:30am 12.2 11.6 10.3 88 1.0 N 4 9 2 5 1009.0 1008.5 1.2
25/06:00am 12.0 9.9 9.6 85 1.2 WNW 11 15 6 8 1008.6 1008.1 1.2
25/05:30am 12.3 9.0 9.7 84 1.4 NW 17 22 9 12 1008.8 1008.3 0.8
25/05:00am 12.2 10.1 9.8 85 1.3 NW 11 13 6 7 1008.6 1008.1 0.6
25/04:30am 12.2 11.1 9.9 86 1.2 NW 6 7 3 4 1008.3 1007.8 0.6
25/04:00am 12.5 11.2 9.9 84 1.4 NNW 7 9 4 5 1008.5 1008.0 0.4
25/03:30am 12.6 11.3 9.8 83 1.5 NW 7 9 4 5 1008.9 1008.4 0.2
25/03:00am 12.8 11.4 9.6 81 1.7 NW 7 9 4 5 1009.0 1008.5 0.0
25/02:30am 13.0 12.9 9.4 79 1.9 CALM 0 0 0 0 1009.1 1008.6 0.0
25/02:00am 13.1 11.7 9.5 79 1.9 N 7 9 4 5 1009.2 1008.7 0.0
25/01:30am 13.0 11.6 9.6 80 1.8 N 7 7 4 4 1009.1 1008.6 0.0
25/01:00am 13.1 11.7 9.7 80 1.8 N 7 9 4 5 1009.8 1009.4 0.0
25/12:30am 13.6 12.3 9.8 78 2.0 N 7 9 4 5 1009.9 1009.5 0.0
25/12:00am 13.5 11.8 9.9 79 1.9 N 9 11 5 6 1010.2 1009.7 0.0
 
Date/Time
EST
Temp
°C
App
Temp
°C
Dew
Point
°C
Rel
Hum
%
Delta-T
°C
Wind Press
QNH
hPa
Press
MSL
hPa
Rain since
9am
mm
Dir  Spd
km/h
Gust
km/h
Spd
kts
Gust
kts
24/11:30pm 13.5 12.2 10.1 80 1.8 NNE 7 9 4 5 1010.3 1009.8 0.0
24/11:00pm 14.0 12.1 10.6 80 1.8 NNW 11 13 6 7 1010.7 1010.2 0.0
24/10:30pm 14.0 12.5 10.6 80 1.8 N 9 9 5 5 1010.5 1010.0 0.0

Other Formats:

Comma delimited format used in spreadsheet applications
http://www.bom.gov.au/fwo/IDN60801/IDN60801.95762.axf

JavaScript Object Notation format (JSON) in row-major order
http://www.bom.gov.au/fwo/IDN60801/IDN60801.95762.json